Time;durP1;ratioP1;P1;durP2;ratioP2;P2;SDS_P1;SDS_P2;PMS_P1;PMS_P2;Temp;Humidity;BMP_temperature;BMP_pressure;BME280_temperature;BME280_humidity;BME280_pressure;Samples;Min_cycle;Max_cycle;Signal;HPM_P1;HPM_P2
2021/10/15 00:01:07;;;;;;;10.23;2.50;;;13.10;83.60;;;;;;4956547;29;20070;-74
2021/10/15 00:03:34;;;;;;;7.97;2.35;;;13.10;83.50;;;;;;4956718;29;20051;-73
2021/10/15 00:06:02;;;;;;;9.68;2.33;;;13.10;83.30;;;;;;4939828;29;20047;-73
2021/10/15 00:08:30;;;;;;;9.40;2.50;;;13.20;83.30;;;;;;4956838;29;20376;-73
2021/10/15 00:15:32;;;;;;;8.98;3.10;;;13.20;83.40;;;;;;4956353;28;20031;-73
2021/10/15 00:17:59;;;;;;;13.25;3.20;;;13.20;83.70;;;;;;4956462;29;20059;-73
2021/10/15 00:20:27;;;;;;;11.73;3.85;;;13.10;84.00;;;;;;4939033;29;20052;-73
2021/10/15 00:22:54;;;;;;;10.10;3.20;;;13.10;84.30;;;;;;4956137;29;20401;-74
2021/10/15 00:25:22;;;;;;;10.93;3.20;;;13.00;84.70;;;;;;4939092;29;20054;-74
2021/10/15 00:27:49;;;;;;;10.25;3.05;;;13.00;85.00;;;;;;4955666;29;20051;-73
2021/10/15 00:30:17;;;;;;;12.10;3.38;;;12.90;85.30;;;;;;4956776;29;20058;-74
2021/10/15 00:32:45;;;;;;;14.00;3.75;;;12.90;85.90;;;;;;4956296;29;20051;-74
2021/10/15 00:35:12;;;;;;;11.02;3.40;;;12.80;86.00;;;;;;4955503;28;20051;-74
2021/10/15 00:37:40;;;;;;;8.85;3.47;;;12.80;86.30;;;;;;4956223;29;20054;-73
2021/10/15 00:44:43;;;;;;;10.65;3.97;;;12.80;86.60;;;;;;4955972;29;20413;-74
2021/10/15 00:47:10;;;;;;;11.07;3.72;;;12.80;86.80;;;;;;4955940;29;20054;-74
2021/10/15 00:49:38;;;;;;;11.13;3.25;;;12.80;87.00;;;;;;4939431;29;20047;-74
2021/10/15 00:52:08;;;;;;;14.75;4.25;;;12.80;87.00;;;;;;4939126;29;20054;-74
2021/10/15 00:59:08;;;;;;;12.40;3.60;;;12.70;87.40;;;;;;4938652;29;20039;-74
2021/10/15 01:01:35;;;;;;;13.77;4.22;;;12.70;87.50;;;;;;4955835;29;20497;-73
2021/10/15 01:04:04;;;;;;;15.32;4.40;;;12.60;87.70;;;;;;4939004;29;20051;-74
2021/10/15 01:06:33;;;;;;;13.50;4.55;;;12.50;87.80;;;;;;4939405;29;20083;-74
2021/10/15 01:09:03;;;;;;;7.70;4.10;;;12.60;88.00;;;;;;4955740;29;20063;-73
2021/10/15 01:11:31;;;;;;;11.10;4.55;;;12.50;88.50;;;;;;4953940;28;20062;-74
2021/10/15 01:13:59;;;;;;;14.27;5.88;;;12.50;88.70;;;;;;4970120;28;20051;-74
2021/10/15 01:16:31;;;;;;;11.00;4.75;;;12.50;88.90;;;;;;4955628;29;20132;-74
2021/10/15 01:19:00;;;;;;;15.27;5.35;;;12.40;89.40;;;;;;4955808;29;20043;-74
2021/10/15 01:21:29;;;;;;;13.90;5.75;;;12.40;89.50;;;;;;4954395;29;20412;-74
2021/10/15 01:23:57;;;;;;;10.10;5.40;;;12.40;89.50;;;;;;4955266;29;20054;-74
2021/10/15 01:26:25;;;;;;;13.38;5.20;;;12.30;90.20;;;;;;4955103;29;20069;-72
2021/10/15 01:28:54;;;;;;;9.45;4.93;;;12.30;90.30;;;;;;4955749;29;20054;-72
2021/10/15 01:31:23;;;;;;;7.72;2.67;;;12.30;90.50;;;;;;4955265;29;20054;-73
2021/10/15 01:33:54;;;;;;;4.53;2.45;;;12.30;90.90;;;;;;4955774;29;20062;-73
2021/10/15 01:36:22;;;;;;;4.15;1.88;;;12.20;90.50;;;;;;4954108;29;20062;-73
2021/10/15 01:38:50;;;;;;;5.40;2.17;;;12.20;90.20;;;;;;4938399;29;20066;-74
2021/10/15 01:41:18;;;;;;;3.05;2.15;;;12.10;90.20;;;;;;4955961;29;20078;-74
2021/10/15 01:43:46;;;;;;;3.53;1.52;;;11.90;90.30;;;;;;4955103;29;20055;-73
2021/10/15 01:46:14;;;;;;;2.83;2.00;;;11.80;90.40;;;;;;4956292;28;20369;-74
2021/10/15 01:48:41;;;;;;;4.85;2.10;;;11.80;90.60;;;;;;4938511;29;20456;-74
2021/10/15 01:51:09;;;;;;;7.18;2.40;;;11.70;90.70;;;;;;4954877;29;20058;-74
2021/10/15 01:53:37;;;;;;;6.70;2.60;;;11.70;90.90;;;;;;4969106;28;20047;-74
2021/10/15 01:56:04;;;;;;;4.15;2.17;;;11.60;91.10;;;;;;4954890;29;20489;-74
2021/10/15 01:58:32;;;;;;;2.83;2.00;;;11.60;91.20;;;;;;4955338;29;20047;-74
2021/10/15 02:00:59;;;;;;;4.22;2.30;;;11.60;91.30;;;;;;4955252;29;20059;-74
2021/10/15 02:03:27;;;;;;;5.22;2.03;;;11.60;91.30;;;;;;4954707;29;20047;-74
2021/10/15 02:05:55;;;;;;;5.15;1.80;;;11.50;91.40;;;;;;4953778;29;20527;-73
2021/10/15 02:08:22;;;;;;;4.43;1.85;;;11.50;91.40;;;;;;4969366;28;20051;-74
2021/10/15 02:10:50;;;;;;;5.30;1.90;;;11.50;91.40;;;;;;4955299;29;20051;-74
2021/10/15 02:13:17;;;;;;;4.75;1.55;;;11.50;91.40;;;;;;4955510;29;20062;-74
2021/10/15 02:15:45;;;;;;;5.20;2.08;;;11.40;91.30;;;;;;4954714;29;20519;-75
2021/10/15 02:18:12;;;;;;;1.80;1.45;;;11.40;91.40;;;;;;4953811;29;20057;-75
2021/10/15 02:20:41;;;;;;;2.55;1.52;;;11.40;91.40;;;;;;4955340;29;20048;-74
2021/10/15 02:23:08;;;;;;;6.70;1.70;;;11.40;91.40;;;;;;4954803;29;20066;-74
2021/10/15 02:25:36;;;;;;;3.88;1.40;;;11.40;91.40;;;;;;4937493;29;20404;-74
2021/10/15 02:28:04;;;;;;;3.90;1.40;;;11.40;91.50;;;;;;4954954;29;20059;-74
2021/10/15 02:30:31;;;;;;;6.28;1.50;;;11.40;91.50;;;;;;4937431;29;20043;-74
2021/10/15 02:32:59;;;;;;;8.25;1.48;;;11.40;91.50;;;;;;4954592;29;20054;-74
2021/10/15 02:35:27;;;;;;;4.75;1.30;;;11.30;91.50;;;;;;4938014;29;20374;-75
2021/10/15 02:37:57;;;;;;;3.80;1.27;;;11.30;91.50;;;;;;4954523;29;20477;-74
2021/10/15 02:40:24;;;;;;;5.45;1.50;;;11.30;91.50;;;;;;4954124;29;20420;-74
2021/10/15 02:42:53;;;;;;;3.30;1.90;;;11.40;91.50;;;;;;4954911;29;20058;-74
2021/10/15 02:45:22;;;;;;;2.90;1.70;;;11.30;91.50;;;;;;4954438;29;20051;-74
2021/10/15 02:47:50;;;;;;;6.40;2.08;;;11.30;91.50;;;;;;4954176;29;20052;-74
2021/10/15 02:50:17;;;;;;;6.85;1.73;;;11.40;91.50;;;;;;4953598;29;20070;-74
2021/10/15 02:52:45;;;;;;;6.20;2.08;;;11.30;91.50;;;;;;4967991;28;20051;-74
2021/10/15 02:55:12;;;;;;;6.05;2.40;;;11.30;91.50;;;;;;4953464;29;20058;-74
2021/10/15 02:57:40;;;;;;;6.25;2.33;;;11.40;91.50;;;;;;4937195;28;20043;-74
2021/10/15 03:00:08;;;;;;;8.63;2.50;;;11.30;91.60;;;;;;4956662;29;20066;-74
2021/10/15 03:02:35;;;;;;;7.75;2.80;;;11.30;91.60;;;;;;4941207;29;20054;-74
2021/10/15 03:05:04;;;;;;;4.88;3.15;;;11.30;91.60;;;;;;4941521;29;20062;-75
2021/10/15 03:07:34;;;;;;;7.35;3.85;;;11.30;91.60;;;;;;4957428;29;20055;-74
2021/10/15 03:10:03;;;;;;;7.18;3.17;;;11.30;91.70;;;;;;4955960;29;20051;-74
2021/10/15 03:12:31;;;;;;;6.35;2.72;;;11.30;91.70;;;;;;4956782;29;20070;-74
2021/10/15 03:14:59;;;;;;;6.60;2.25;;;11.30;91.70;;;;;;4957516;28;20121;-74
2021/10/15 03:17:26;;;;;;;6.20;2.28;;;11.30;91.70;;;;;;4958133;29;20047;-74
2021/10/15 03:19:54;;;;;;;8.77;1.77;;;11.30;91.70;;;;;;4957219;28;20074;-74
2021/10/15 03:22:21;;;;;;;5.68;1.77;;;11.30;91.80;;;;;;4958095;29;20066;-74
2021/10/15 03:24:49;;;;;;;12.85;2.20;;;11.30;91.80;;;;;;4956739;29;20070;-74
2021/10/15 03:27:16;;;;;;;6.47;1.58;;;11.30;91.70;;;;;;4956789;29;20409;-75
2021/10/15 03:29:44;;;;;;;9.93;1.48;;;11.30;91.70;;;;;;4957409;29;20055;-74
2021/10/15 03:32:11;;;;;;;5.93;1.45;;;11.30;91.70;;;;;;4971904;28;20444;-74
2021/10/15 03:34:39;;;;;;;5.72;1.00;;;11.20;91.70;;;;;;4957388;29;20062;-74
2021/10/15 03:37:07;;;;;;;9.75;1.67;;;11.20;91.70;;;;;;4957998;29;20047;-74
2021/10/15 03:39:34;;;;;;;5.38;1.20;;;11.30;91.60;;;;;;4972992;28;20059;-75
2021/10/15 03:42:02;;;;;;;11.98;1.23;;;11.30;91.60;;;;;;4955950;29;20054;-74
2021/10/15 03:44:29;;;;;;;7.32;1.27;;;11.20;91.50;;;;;;4955299;29;20404;-74
2021/10/15 03:46:57;;;;;;;8.88;1.40;;;11.30;91.50;;;;;;4959370;28;20062;-74
2021/10/15 03:49:25;;;;;;;7.88;1.70;;;11.30;91.40;;;;;;4957618;29;20066;-74
2021/10/15 03:51:52;;;;;;;13.48;1.55;;;11.20;91.40;;;;;;4957303;28;20051;-74
2021/10/15 03:58:54;;;;;;;8.63;1.50;;;11.20;91.20;;;;;;4956950;28;20044;-74
2021/10/15 04:01:22;;;;;;;6.00;1.50;;;11.20;90.60;;;;;;4957271;29;20043;-74
2021/10/15 04:03:50;;;;;;;9.88;1.27;;;11.10;90.40;;;;;;4956737;29;20085;-74
2021/10/15 04:06:17;;;;;;;8.88;1.00;;;11.10;90.00;;;;;;4957290;28;20055;-74
2021/10/15 04:08:45;;;;;;;9.32;1.13;;;11.10;89.70;;;;;;4939817;29;20059;-74
2021/10/15 04:11:12;;;;;;;11.23;1.55;;;11.00;89.60;;;;;;4956120;28;20497;-74
2021/10/15 04:13:40;;;;;;;12.27;1.40;;;11.00;89.20;;;;;;4955560;29;20055;-75
2021/10/15 04:16:07;;;;;;;6.90;1.05;;;11.00;88.70;;;;;;4955468;29;20047;-75
2021/10/15 04:18:35;;;;;;;6.50;0.95;;;10.90;88.60;;;;;;4955692;29;20050;-75
2021/10/15 04:21:02;;;;;;;8.60;1.17;;;10.90;88.50;;;;;;4956517;29;20047;-74
2021/10/15 04:23:30;;;;;;;7.55;0.98;;;10.80;87.80;;;;;;4971495;28;20065;-74
2021/10/15 04:25:58;;;;;;;6.80;0.88;;;10.70;87.20;;;;;;4939362;29;20058;-74
2021/10/15 04:28:25;;;;;;;7.25;1.00;;;10.70;86.80;;;;;;4956551;29;20055;-74
2021/10/15 04:30:53;;;;;;;12.23;1.35;;;10.70;86.80;;;;;;4955188;29;20047;-73
2021/10/15 04:33:21;;;;;;;13.40;1.85;;;10.60;86.70;;;;;;4956659;29;20051;-73
2021/10/15 04:35:48;;;;;;;8.07;1.10;;;10.60;86.90;;;;;;4955035;29;20047;-73
2021/10/15 04:38:15;;;;;;;5.60;0.95;;;10.50;87.00;;;;;;4956205;29;20054;-73
2021/10/15 04:40:44;;;;;;;7.68;1.25;;;10.40;87.00;;;;;;4939775;29;20054;-72
2021/10/15 04:43:11;;;;;;;9.02;1.10;;;10.40;87.10;;;;;;4955556;29;20062;-72
2021/10/15 04:45:39;;;;;;;5.22;0.93;;;10.40;87.10;;;;;;4938777;29;20074;-73
2021/10/15 04:48:07;;;;;;;7.78;1.10;;;10.30;87.10;;;;;;4970194;28;20489;-73
2021/10/15 04:50:37;;;;;;;7.30;0.95;;;10.30;87.20;;;;;;4956411;29;20504;-72
2021/10/15 04:53:06;;;;;;;12.00;1.27;;;10.30;87.30;;;;;;4956593;29;20043;-73
2021/10/15 04:55:35;;;;;;;7.15;1.25;;;10.20;87.50;;;;;;4954706;29;20062;-72
2021/10/15 04:58:04;;;;;;;6.10;1.20;;;10.20;87.60;;;;;;4955710;29;20519;-73
2021/10/15 05:00:33;;;;;;;6.78;1.20;;;10.20;87.70;;;;;;4970706;28;20059;-73
2021/10/15 05:03:01;;;;;;;11.80;1.48;;;10.20;87.80;;;;;;4955004;29;20047;-73
2021/10/15 05:05:34;;;;;;;6.97;1.10;;;10.20;87.90;;;;;;4955933;28;20062;-73
2021/10/15 05:08:01;;;;;;;3.28;1.05;;;10.20;87.90;;;;;;4955542;29;20499;-73
2021/10/15 05:10:29;;;;;;;3.35;1.00;;;10.20;87.90;;;;;;4955768;28;20059;-73
2021/10/15 05:12:57;;;;;;;6.82;1.15;;;10.20;87.80;;;;;;4956081;29;20052;-73
2021/10/15 05:15:24;;;;;;;2.67;0.70;;;10.20;87.70;;;;;;4937603;29;20051;-73
2021/10/15 05:17:52;;;;;;;1.55;0.77;;;10.20;87.60;;;;;;4938512;29;20047;-73
2021/10/15 05:20:20;;;;;;;3.63;1.08;;;10.20;87.50;;;;;;4956391;29;20062;-73
2021/10/15 05:22:49;;;;;;;4.60;0.75;;;10.20;87.40;;;;;;4954360;28;20055;-73
2021/10/15 05:25:16;;;;;;;3.20;0.65;;;10.10;87.40;;;;;;4938047;29;20055;-73
2021/10/15 05:27:44;;;;;;;1.83;0.77;;;10.10;87.30;;;;;;4922408;29;20058;-73
2021/10/15 05:30:13;;;;;;;1.35;0.73;;;10.00;87.20;;;;;;4938812;29;20043;-73
2021/10/15 05:32:41;;;;;;;6.10;0.90;;;9.90;87.20;;;;;;4938007;29;20043;-73
2021/10/15 05:35:09;;;;;;;4.13;1.00;;;9.80;87.10;;;;;;4956038;29;20058;-73
2021/10/15 05:37:37;;;;;;;3.83;0.80;;;9.70;86.60;;;;;;4955222;29;20070;-73
2021/10/15 05:40:06;;;;;;;2.47;0.68;;;9.70;86.50;;;;;;4955562;29;20051;-73
2021/10/15 05:42:33;;;;;;;5.90;0.70;;;9.60;86.40;;;;;;4969906;28;20058;-72
2021/10/15 05:45:01;;;;;;;5.70;0.80;;;9.50;86.20;;;;;;4939047;29;20058;-73
2021/10/15 05:47:28;;;;;;;3.75;0.80;;;9.40;86.10;;;;;;4957055;29;20039;-73
2021/10/15 05:49:58;;;;;;;5.05;1.00;;;9.30;86.20;;;;;;4955752;29;20047;-73
2021/10/15 05:52:33;;;;;;;6.00;0.82;;;9.30;86.20;;;;;;4954904;29;20044;-73
2021/10/15 06:00:27;;;;;;;4.55;1.30;;;8.90;86.30;;;;;;4918981;29;20051;-73
2021/10/15 06:02:55;;;;;;;5.80;1.10;;;8.70;86.60;;;;;;4955611;29;20047;-73
2021/10/15 06:16:18;;;;;;;5.85;1.15;;;8.00;87.50;;;;;;4969250;28;20413;-74
2021/10/15 06:18:52;;;;;;;4.95;1.48;;;7.80;87.60;;;;;;4955370;29;20047;-73
2021/10/15 06:21:20;;;;;;;8.88;1.60;;;7.70;87.90;;;;;;4955340;29;20043;-73
2021/10/15 06:23:48;;;;;;;6.57;2.05;;;7.60;88.20;;;;;;4969526;28;20043;-73
2021/10/15 06:26:16;;;;;;;7.10;1.65;;;7.40;88.50;;;;;;4936986;29;20055;-73
2021/10/15 06:28:43;;;;;;;5.63;1.70;;;7.30;88.70;;;;;;4954385;29;20047;-72
2021/10/15 06:31:11;;;;;;;5.88;1.65;;;7.20;88.90;;;;;;4954637;29;20047;-72
2021/10/15 06:33:39;;;;;;;5.70;1.20;;;7.10;89.10;;;;;;4922936;29;20043;-73
2021/10/15 06:36:06;;;;;;;6.00;1.77;;;7.00;89.30;;;;;;4958736;29;20055;-73
2021/10/15 06:38:35;;;;;;;7.53;2.30;;;7.00;89.40;;;;;;4958449;29;20054;-74
2021/10/15 06:41:02;;;;;;;7.30;1.60;;;6.90;89.60;;;;;;4958678;29;20062;-74
2021/10/15 06:43:30;;;;;;;6.80;1.90;;;6.90;89.70;;;;;;4958238;29;20141;-73
2021/10/15 06:45:57;;;;;;;5.90;1.80;;;6.90;89.90;;;;;;4972797;28;20047;-73
2021/10/15 06:48:25;;;;;;;7.78;2.20;;;6.90;90.00;;;;;;4957273;29;20074;-73
2021/10/15 06:50:53;;;;;;;9.10;2.10;;;6.90;90.10;;;;;;4941073;29;20051;-73
2021/10/15 06:53:20;;;;;;;7.25;1.60;;;7.00;90.10;;;;;;4940388;29;20058;-73
2021/10/15 06:55:48;;;;;;;6.70;1.42;;;7.00;90.10;;;;;;4940800;29;20055;-73
2021/10/15 06:58:17;;;;;;;9.43;1.50;;;7.10;90.10;;;;;;4958289;28;20062;-73
2021/10/15 07:00:45;;;;;;;6.93;1.50;;;7.10;90.00;;;;;;4958245;29;20055;-73
2021/10/15 07:03:17;;;;;;;7.80;1.40;;;7.20;90.00;;;;;;4957677;29;20063;-74
2021/10/15 07:05:46;;;;;;;13.85;2.80;;;7.20;90.00;;;;;;4940555;29;20515;-73
2021/10/15 07:08:13;;;;;;;10.30;1.95;;;7.30;89.90;;;;;;4956866;29;20059;-73
2021/10/15 07:10:41;;;;;;;5.25;1.50;;;7.30;89.90;;;;;;4958652;29;20373;-73
2021/10/15 07:13:13;;;;;;;5.15;1.40;;;7.30;89.80;;;;;;4958397;29;20055;-73
2021/10/15 07:15:46;;;;;;;7.00;1.45;;;7.40;89.80;;;;;;4958222;29;20051;-73
2021/10/15 07:18:14;;;;;;;6.03;1.00;;;7.50;89.70;;;;;;4958159;29;20066;-73
2021/10/15 07:20:42;;;;;;;5.30;1.10;;;7.60;89.50;;;;;;4957191;29;20047;-73
2021/10/15 07:23:14;;;;;;;4.35;1.17;;;7.60;89.10;;;;;;4940301;29;20070;-73
2021/10/15 07:25:43;;;;;;;5.60;1.13;;;7.70;88.80;;;;;;4957887;29;20048;-72
2021/10/15 07:28:12;;;;;;;6.25;1.17;;;7.70;88.70;;;;;;4958017;29;20487;-73
2021/10/15 07:30:40;;;;;;;11.75;1.50;;;7.60;88.50;;;;;;4925341;29;20059;-73
2021/10/15 07:33:08;;;;;;;3.08;0.70;;;7.50;88.50;;;;;;4924515;29;20068;-73
2021/10/15 07:35:36;;;;;;;5.53;0.85;;;7.40;88.50;;;;;;4940880;29;20050;-74
2021/10/15 07:38:04;;;;;;;3.35;0.70;;;7.40;88.50;;;;;;4955906;29;20071;-73
2021/10/15 07:40:32;;;;;;;5.20;0.77;;;7.30;88.50;;;;;;4940441;29;20051;-73
2021/10/15 07:42:59;;;;;;;5.63;0.82;;;7.30;88.50;;;;;;4957420;29;20051;-74
2021/10/15 07:45:28;;;;;;;7.65;0.80;;;7.30;88.50;;;;;;4957274;28;20054;-73
2021/10/15 07:47:59;;;;;;;4.03;0.90;;;7.30;88.40;;;;;;4957718;29;20373;-73
2021/10/15 07:50:27;;;;;;;5.07;1.15;;;7.20;88.40;;;;;;4956148;29;20058;-73
2021/10/15 07:52:56;;;;;;;7.80;0.93;;;7.30;88.40;;;;;;4957382;29;20059;-73
2021/10/15 07:55:23;;;;;;;6.22;1.10;;;7.30;88.30;;;;;;4956730;29;20059;-74
2021/10/15 07:57:51;;;;;;;6.50;1.30;;;7.30;88.20;;;;;;4924553;29;20064;-74
2021/10/15 08:00:19;;;;;;;3.90;0.75;;;7.30;88.10;;;;;;4956719;29;20051;-74
2021/10/15 08:02:47;;;;;;;4.85;0.70;;;7.30;88.00;;;;;;4956747;29;20055;-74
2021/10/15 08:05:16;;;;;;;8.45;1.25;;;7.40;87.90;;;;;;4957719;29;20043;-74
2021/10/15 08:07:44;;;;;;;9.30;1.02;;;7.30;87.80;;;;;;4956683;29;20074;-74
2021/10/15 08:10:12;;;;;;;3.22;0.63;;;7.40;87.70;;;;;;4957578;29;20050;-74
2021/10/15 08:12:40;;;;;;;3.30;1.00;;;7.40;87.60;;;;;;4923859;29;20050;-73
2021/10/15 08:15:10;;;;;;;5.05;1.15;;;7.50;87.60;;;;;;4957136;29;20055;-74
2021/10/15 08:17:43;;;;;;;8.00;1.50;;;7.50;87.60;;;;;;4957474;29;20054;-74
2021/10/15 08:20:13;;;;;;;6.30;1.65;;;7.60;87.50;;;;;;4956846;29;20051;-73
2021/10/15 08:22:51;;;;;;;4.45;1.23;;;7.70;87.30;;;;;;4957046;29;20047;-73
2021/10/15 08:25:26;;;;;;;4.93;0.90;;;7.70;87.10;;;;;;4956971;29;20372;-74
2021/10/15 08:27:54;;;;;;;5.05;0.95;;;7.80;86.90;;;;;;4956314;29;20051;-73
2021/10/15 08:30:22;;;;;;;4.07;0.80;;;7.80;86.70;;;;;;4971427;28;20047;-73
2021/10/15 08:32:52;;;;;;;8.38;1.50;;;7.90;86.50;;;;;;4956740;29;20051;-73
2021/10/15 08:35:22;;;;;;;4.45;0.77;;;7.90;86.30;;;;;;4956764;29;20047;-73
2021/10/15 08:37:51;;;;;;;4.00;0.80;;;8.00;86.10;;;;;;4957001;29;20380;-73
2021/10/15 08:40:19;;;;;;;2.55;0.60;;;8.10;85.90;;;;;;4956247;29;20047;-73
2021/10/15 08:42:52;;;;;;;6.97;0.85;;;8.20;85.70;;;;;;4956131;29;20047;-73
2021/10/15 08:49:53;;;;;;;7.70;0.63;;;8.20;85.30;;;;;;4956294;29;20508;-73
2021/10/15 08:52:20;;;;;;;9.98;1.25;;;8.30;85.10;;;;;;4954576;29;20055;-73
2021/10/15 08:54:48;;;;;;;3.38;0.50;;;8.30;84.80;;;;;;4939777;29;20051;-73
2021/10/15 08:57:16;;;;;;;5.60;0.65;;;8.40;84.60;;;;;;4955205;28;20048;-73
2021/10/15 08:59:46;;;;;;;3.85;0.65;;;8.50;84.30;;;;;;4938618;29;20066;-73
2021/10/15 09:02:24;;;;;;;3.22;0.60;;;8.50;84.20;;;;;;4956411;29;20054;-73
2021/10/15 09:04:58;;;;;;;3.70;0.70;;;8.60;84.10;;;;;;4938825;29;20055;-73
2021/10/15 09:07:27;;;;;;;9.02;0.75;;;8.70;83.90;;;;;;4923286;29;20051;-73
2021/10/15 09:10:11;;;;;;;6.88;1.02;;;8.70;83.80;;;;;;4953033;29;20059;-74
2021/10/15 09:12:47;;;;;;;6.38;0.70;;;8.80;83.30;;;;;;4955993;28;20055;-73
2021/10/15 09:15:16;;;;;;;4.70;0.80;;;8.80;83.10;;;;;;4954712;29;20051;-73
2021/10/15 09:17:49;;;;;;;4.00;0.80;;;8.90;83.00;;;;;;4955266;29;20050;-74
2021/10/15 09:20:31;;;;;;;4.80;1.00;;;9.00;82.80;;;;;;4954490;28;20062;-74
2021/10/15 09:23:15;;;;;;;4.10;0.95;;;9.00;82.50;;;;;;4954701;28;20161;-74
2021/10/15 09:26:08;;;;;;;7.18;0.73;;;9.20;82.50;;;;;;4953483;29;20066;-74
2021/10/15 09:28:41;;;;;;;6.03;0.77;;;9.30;82.10;;;;;;4954674;29;20392;-74
2021/10/15 09:31:10;;;;;;;11.05;1.27;;;9.30;81.90;;;;;;4954502;29;20051;-74
2021/10/15 09:33:37;;;;;;;9.52;1.48;;;9.50;81.60;;;;;;4954128;29;20043;-74
2021/10/15 09:36:10;;;;;;;2.65;0.68;;;9.60;81.20;;;;;;4955339;29;20372;-73
2021/10/15 09:43:12;;;;;;;6.15;1.10;;;9.80;80.70;;;;;;4955469;29;20027;-73
2021/10/15 09:45:42;;;;;;;3.28;1.00;;;9.90;80.50;;;;;;4955000;29;20066;-74
2021/10/15 09:53:02;;;;;;;6.28;1.10;;;10.10;79.40;;;;;;4955211;29;20054;-73
2021/10/15 09:55:42;;;;;;;4.00;0.80;;;10.20;78.60;;;;;;4954349;29;20047;-73
2021/10/15 09:58:12;;;;;;;4.82;0.77;;;10.30;78.70;;;;;;4954279;29;20046;-74
2021/10/15 10:00:41;;;;;;;4.13;0.70;;;10.30;78.60;;;;;;4954373;29;20059;-74
2021/10/15 10:07:44;;;;;;;3.35;1.00;;;10.60;77.90;;;;;;4954675;28;20043;-73
2021/10/15 10:10:15;;;;;;;7.18;0.70;;;10.80;77.40;;;;;;4937631;29;20048;-73
2021/10/15 10:12:47;;;;;;;3.10;0.60;;;11.00;77.10;;;;;;4970072;28;20050;-73
2021/10/15 10:15:19;;;;;;;6.50;0.88;;;11.10;76.50;;;;;;4938321;29;20099;-73
2021/10/15 10:17:57;;;;;;;7.22;0.90;;;11.20;76.00;;;;;;4955190;29;20059;-75
2021/10/15 10:20:31;;;;;;;4.10;0.60;;;11.30;75.30;;;;;;4937877;29;20132;-74
2021/10/15 10:23:13;;;;;;;4.75;0.90;;;11.30;75.00;;;;;;4937162;29;20047;-74
2021/10/15 10:25:41;;;;;;;2.22;0.70;;;11.40;74.60;;;;;;4937651;29;20050;-74
2021/10/15 10:28:13;;;;;;;9.50;1.00;;;11.50;74.50;;;;;;4955119;29;20496;-73
2021/10/15 10:30:47;;;;;;;6.65;1.33;;;11.60;74.40;;;;;;4954313;29;20056;-74
2021/10/15 10:33:19;;;;;;;5.13;0.80;;;11.80;74.00;;;;;;4938066;29;20047;-74
2021/10/15 10:35:49;;;;;;;5.20;0.77;;;12.00;73.30;;;;;;4954465;28;20051;-73
2021/10/15 10:38:19;;;;;;;6.60;1.15;;;12.20;72.90;;;;;;4937199;29;20412;-74
2021/10/15 10:41:00;;;;;;;5.85;0.90;;;12.30;72.20;;;;;;4955106;29;20051;-74
2021/10/15 10:43:33;;;;;;;3.40;1.00;;;12.30;71.60;;;;;;4937898;29;20097;-74
2021/10/15 10:46:09;;;;;;;6.03;0.80;;;12.30;71.40;;;;;;4921997;29;20047;-74
2021/10/15 10:48:46;;;;;;;4.18;0.75;;;12.40;70.90;;;;;;4937109;29;20051;-74
2021/10/15 10:51:33;;;;;;;5.45;0.70;;;12.30;70.70;;;;;;4954891;29;20077;-74
2021/10/15 10:54:06;;;;;;;6.20;1.00;;;12.30;70.60;;;;;;4954982;28;20056;-74
2021/10/15 10:56:40;;;;;;;6.20;0.70;;;12.50;70.30;;;;;;4954833;29;20047;-74
2021/10/15 10:59:17;;;;;;;4.65;0.60;;;12.80;70.10;;;;;;4954945;29;20409;-74
2021/10/15 11:02:11;;;;;;;2.08;0.63;;;13.00;69.10;;;;;;4955000;29;20051;-74
2021/10/15 11:04:42;;;;;;;4.72;0.73;;;13.10;68.00;;;;;;4955037;29;20048;-74
2021/10/15 11:11:43;;;;;;;4.03;0.90;;;12.80;68.10;;;;;;4935009;29;20039;-76
2021/10/15 11:14:21;;;;;;;4.25;0.75;;;12.90;68.30;;;;;;4934886;29;20048;-75
2021/10/15 11:16:51;;;;;;;5.65;0.60;;;13.20;66.70;;;;;;4935454;29;20055;-74
2021/10/15 11:19:20;;;;;;;3.00;0.55;;;13.30;65.70;;;;;;4936395;29;20051;-74
2021/10/15 11:22:00;;;;;;;4.97;0.80;;;13.20;65.10;;;;;;4938597;29;20048;-73
2021/10/15 11:24:28;;;;;;;5.00;0.68;;;13.00;64.60;;;;;;4938764;29;20040;-74
2021/10/15 11:26:56;;;;;;;1.98;0.70;;;12.80;65.40;;;;;;4937833;29;20048;-74
2021/10/15 11:29:24;;;;;;;3.05;0.60;;;12.70;65.50;;;;;;4921488;29;20066;-74
2021/10/15 11:31:56;;;;;;;5.28;0.60;;;12.70;65.60;;;;;;4938068;29;20043;-74
2021/10/15 11:34:24;;;;;;;5.22;0.52;;;12.80;65.00;;;;;;4921410;29;20071;-74
2021/10/15 11:37:03;;;;;;;5.05;0.70;;;13.00;64.30;;;;;;4920574;29;20339;-75
2021/10/15 11:39:31;;;;;;;7.50;1.08;;;13.50;64.10;;;;;;4904815;29;20052;-74
2021/10/15 11:41:58;;;;;;;6.30;0.93;;;14.00;63.30;;;;;;4920504;29;20047;-75
2021/10/15 11:44:37;;;;;;;4.82;0.90;;;14.50;61.80;;;;;;4939425;29;20063;-74
2021/10/15 11:47:10;;;;;;;3.00;1.10;;;15.20;60.10;;;;;;4921434;29;20054;-74
2021/10/15 11:49:38;;;;;;;;;;;15.70;58.80;;;;;;4938871;29;20063;-78
2021/10/15 11:52:06;;;;;;;2.50;0.65;;;16.20;56.30;;;;;;4937901;29;19923;-74
2021/10/15 11:54:33;;;;;;;4.18;0.90;;;16.70;55.70;;;;;;4937761;29;20039;-75
2021/10/15 11:57:04;;;;;;;2.85;0.90;;;17.10;55.00;;;;;;4938584;29;20043;-74
2021/10/15 11:59:32;;;;;;;5.72;0.68;;;17.50;53.90;;;;;;4921343;29;20066;-75
2021/10/15 12:02:00;;;;;;;3.22;1.00;;;17.30;52.00;;;;;;4937630;29;20450;-75
2021/10/15 12:04:28;;;;;;;5.60;0.93;;;16.80;52.40;;;;;;4920550;29;20068;-74
2021/10/15 12:06:55;;;;;;;2.80;0.75;;;16.30;53.30;;;;;;4938318;29;20370;-74
2021/10/15 12:09:23;;;;;;;1.95;0.60;;;15.80;53.70;;;;;;4938328;29;20051;-74
2021/10/15 12:11:55;;;;;;;1.98;0.60;;;15.60;54.20;;;;;;4939273;29;20050;-74
2021/10/15 12:14:31;;;;;;;6.07;0.60;;;15.80;54.20;;;;;;4940247;29;20070;-74
2021/10/15 12:17:00;;;;;;;4.97;0.73;;;16.40;52.20;;;;;;4957154;29;20050;-74
2021/10/15 12:19:32;;;;;;;2.50;0.77;;;17.10;51.60;;;;;;4938625;29;20415;-73
2021/10/15 12:22:24;;;;;;;5.65;0.75;;;17.90;50.00;;;;;;4939961;29;20495;-73
2021/10/15 12:25:01;;;;;;;4.78;0.90;;;18.40;45.90;;;;;;4956880;29;20047;-74
2021/10/15 12:27:41;;;;;;;4.40;1.00;;;18.70;45.20;;;;;;4956309;29;20047;-73
2021/10/15 12:30:22;;;;;;;1.55;0.70;;;18.90;43.80;;;;;;4957097;28;20059;-73
2021/10/15 12:32:52;;;;;;;4.50;0.88;;;18.90;45.20;;;;;;4956412;29;20051;-73
2021/10/15 12:35:24;;;;;;;3.83;0.80;;;18.40;45.70;;;;;;4956813;29;20058;-74
2021/10/15 12:37:51;;;;;;;3.67;0.75;;;17.80;46.50;;;;;;4939618;29;20059;-73
2021/10/15 12:40:33;;;;;;;3.90;0.80;;;16.90;47.20;;;;;;4955523;29;20051;-73
2021/10/15 12:43:06;;;;;;;1.77;0.63;;;16.20;48.30;;;;;;4939453;29;20055;-73
2021/10/15 12:45:41;;;;;;;3.10;0.70;;;16.00;49.10;;;;;;4956452;29;20054;-74
2021/10/15 12:48:16;;;;;;;3.55;0.90;;;16.00;49.10;;;;;;4939592;29;20047;-74
2021/10/15 12:50:59;;;;;;;3.47;0.80;;;16.80;49.10;;;;;;4956536;29;20058;-74
2021/10/15 12:53:33;;;;;;;3.15;0.88;;;17.80;47.30;;;;;;4955149;29;20059;-74
2021/10/15 12:56:01;;;;;;;3.63;0.98;;;;;;;;;;4955053;29;20051;-73
2021/10/15 12:58:31;;;;;;;4.45;0.80;;;19.60;44.70;;;;;;4955890;29;20527;-73
2021/10/15 13:01:01;;;;;;;6.00;0.93;;;20.30;42.70;;;;;;4955474;29;20059;-80
2021/10/15 13:03:31;;;;;;;4.82;1.00;;;20.80;42.10;;;;;;4956050;29;20047;-73
2021/10/15 13:06:02;;;;;;;6.05;1.00;;;21.00;41.60;;;;;;4955898;29;20389;-74
2021/10/15 13:08:30;;;;;;;3.20;0.90;;;20.60;41.00;;;;;;4955947;29;20051;-74
2021/10/15 13:10:58;;;;;;;5.97;0.90;;;19.80;41.50;;;;;;4955540;29;20074;-73
2021/10/15 13:13:25;;;;;;;6.85;1.00;;;18.90;42.40;;;;;;4955885;28;20066;-74
2021/10/15 13:15:53;;;;;;;5.68;1.27;;;18.30;43.40;;;;;;4955776;29;20067;-74
2021/10/15 13:18:21;;;;;;;5.35;1.50;;;18.30;44.20;;;;;;4955384;29;20050;-73
2021/10/15 13:25:24;;;;;;;3.13;0.80;;;19.60;42.40;;;;;;4954989;29;20046;-72
2021/10/15 13:27:52;;;;;;;3.38;1.02;;;20.10;41.20;;;;;;4938655;29;20054;-73
2021/10/15 13:30:20;;;;;;;3.80;1.10;;;20.40;40.20;;;;;;4938184;29;20043;-73
2021/10/15 13:32:48;;;;;;;5.35;0.93;;;21.00;40.00;;;;;;4956016;29;20047;-78
2021/10/15 13:39:54;;;;;;;4.75;0.80;;;22.30;37.00;;;;;;4955173;28;20032;-77
2021/10/15 13:45:21;;;;;;;4.28;0.98;;;22.70;36.00;;;;;;4957192;29;20063;-73
2021/10/15 13:50:42;;;;;;;5.28;1.25;;;23.20;33.20;;;;;;4954665;29;20054;-73
2021/10/15 13:53:11;;;;;;;;;;;23.00;33.20;;;;;;4938758;29;20051;-73
2021/10/15 13:58:23;;;;;;;3.88;1.02;;;22.90;33.00;;;;;;4955570;29;20058;-73
2021/10/15 14:00:57;;;;;;;3.28;0.95;;;22.80;32.70;;;;;;4954414;29;20054;-73
2021/10/15 14:06:02;;;;;;;4.32;0.85;;;22.80;32.90;;;;;;4938127;29;20043;-73
2021/10/15 14:08:31;;;;;;;4.15;0.77;;;22.90;33.10;;;;;;4954092;29;20493;-73
2021/10/15 14:11:00;;;;;;;2.92;0.93;;;22.80;31.70;;;;;;4954782;29;20062;-73
2021/10/15 14:13:30;;;;;;;3.90;0.70;;;22.60;32.20;;;;;;4955021;29;20043;-74
2021/10/15 14:15:59;;;;;;;5.82;1.27;;;22.60;32.60;;;;;;4921800;29;20051;-73
2021/10/15 14:18:29;;;;;;;2.95;0.80;;;22.60;31.70;;;;;;4954787;29;20054;-74
2021/10/15 14:20:59;;;;;;;3.03;1.05;;;22.50;31.20;;;;;;4955115;29;20070;-74